createdAt,value
2023-02-20T00:00:33.351Z,11.95
2023-02-20T00:03:00.186Z,12.05
2023-02-20T00:05:26.905Z,11.77
2023-02-20T00:07:53.631Z,11.48
2023-02-20T00:10:20.333Z,10.88
2023-02-20T00:12:47.118Z,11.93
2023-02-20T00:15:21.605Z,12.68
2023-02-20T00:17:48.770Z,12.13
2023-02-20T00:20:23.755Z,12.35
2023-02-20T00:22:51.200Z,12.38
2023-02-20T00:25:21.892Z,11.55
2023-02-20T00:27:48.764Z,12.65
2023-02-20T00:30:21.670Z,12.70
2023-02-20T00:32:49.997Z,12.27
2023-02-20T00:35:17.978Z,13.27
2023-02-20T00:37:49.044Z,12.38
2023-02-20T00:40:18.398Z,12.13
2023-02-20T00:42:45.250Z,13.27
2023-02-20T00:45:13.508Z,13.80
2023-02-20T00:47:40.339Z,13.25
2023-02-20T00:50:08.536Z,14.18
2023-02-20T00:52:36.206Z,14.65
2023-02-20T00:55:03.741Z,15.18
2023-02-20T00:57:30.473Z,15.32
2023-02-20T00:59:57.225Z,16.13
2023-02-20T01:02:24.002Z,16.77
2023-02-20T01:04:50.875Z,17.02
2023-02-20T01:07:17.617Z,17.20
2023-02-20T01:09:44.364Z,17.85
2023-02-20T01:12:11.058Z,17.17
2023-02-20T01:14:38.141Z,17.45
2023-02-20T01:17:05.009Z,19.00
2023-02-20T01:19:31.886Z,18.80
2023-02-20T01:21:58.695Z,18.65
2023-02-20T01:24:25.400Z,19.45
2023-02-20T01:26:52.172Z,20.55
2023-02-20T01:29:19.198Z,20.75
2023-02-20T01:31:50.579Z,21.27
2023-02-20T01:34:18.986Z,21.25
2023-02-20T01:36:55.828Z,22.75
2023-02-20T01:39:26.314Z,23.30
2023-02-20T01:41:58.001Z,22.45
2023-02-20T01:46:58.407Z,23.45
2023-02-20T01:52:25.669Z,19.63
2023-02-20T01:55:10.296Z,22.70
2023-02-20T01:57:42.551Z,22.75
2023-02-20T02:00:20.781Z,22.73
2023-02-20T02:03:04.581Z,21.90
2023-02-20T02:05:32.128Z,22.65
2023-02-20T02:08:01.819Z,23.42
2023-02-20T02:10:50.782Z,21.45
2023-02-20T02:13:17.528Z,22.67
2023-02-20T02:15:44.326Z,22.50
2023-02-20T02:18:28.290Z,21.65
2023-02-20T02:21:03.672Z,22.90
2023-02-20T02:23:42.150Z,16.33
2023-02-20T02:26:30.468Z,20.30
2023-02-20T02:29:18.824Z,21.15
2023-02-20T02:32:15.822Z,20.00
2023-02-20T02:35:00.320Z,19.80
2023-02-20T02:37:48.680Z,19.60
2023-02-20T02:40:15.633Z,20.38
2023-02-20T02:43:08.229Z,20.88
2023-02-20T02:45:40.818Z,20.55
2023-02-20T02:48:28.322Z,20.95
2023-02-20T02:51:00.473Z,17.45
2023-02-20T02:53:27.331Z,17.17
2023-02-20T02:55:54.087Z,18.10
2023-02-20T02:58:21.051Z,14.50
2023-02-20T03:00:58.488Z,14.73
2023-02-20T03:03:30.190Z,15.07
2023-02-20T03:08:32.903Z,12.20
2023-02-20T03:11:13.097Z,13.25
2023-02-20T03:14:02.555Z,13.48
2023-02-20T03:16:54.405Z,13.45
2023-02-20T03:19:33.268Z,14.63
2023-02-20T03:22:02.600Z,13.95
2023-02-20T03:24:31.372Z,15.55
2023-02-20T03:26:58.997Z,15.45
2023-02-20T03:29:36.979Z,16.33
2023-02-20T03:32:28.567Z,15.32
2023-02-20T03:35:15.957Z,16.25
2023-02-20T03:38:04.384Z,17.35
2023-02-20T03:40:51.538Z,19.17
2023-02-20T03:43:27.979Z,16.65
2023-02-20T03:46:02.826Z,18.42
2023-02-20T03:48:45.524Z,17.80
2023-02-20T03:51:32.034Z,16.83
2023-02-20T03:53:59.941Z,16.17
2023-02-20T03:56:34.935Z,17.52
2023-02-20T03:59:29.072Z,16.15
2023-02-20T04:02:02.139Z,15.55
2023-02-20T04:04:44.419Z,16.27
2023-02-20T04:07:23.769Z,16.00
2023-02-20T04:09:52.211Z,15.13
2023-02-20T04:12:34.160Z,16.55
2023-02-20T04:15:02.192Z,15.52
2023-02-20T04:17:51.741Z,15.93
2023-02-20T04:20:18.822Z,15.27
2023-02-20T04:22:48.849Z,14.00
2023-02-20T04:25:29.749Z,15.90
2023-02-20T04:27:56.813Z,15.60
2023-02-20T04:30:23.562Z,14.60
2023-02-20T04:32:50.331Z,14.75
2023-02-20T04:35:20.160Z,15.32
2023-02-20T04:37:46.883Z,14.68
2023-02-20T04:40:17.606Z,15.07
2023-02-20T04:42:44.393Z,15.23
2023-02-20T04:45:11.118Z,14.32
2023-02-20T04:47:37.822Z,14.77
2023-02-20T04:50:05.050Z,15.57
2023-02-20T04:52:31.761Z,15.27
2023-02-20T04:54:58.472Z,15.45
2023-02-20T04:57:25.218Z,15.68
2023-02-20T04:59:51.941Z,16.42
2023-02-20T05:02:18.679Z,16.92
2023-02-20T05:04:45.408Z,17.20
2023-02-20T05:07:12.173Z,16.73
2023-02-20T05:09:38.901Z,17.55
2023-02-20T05:12:05.844Z,16.58
2023-02-20T05:14:32.519Z,16.92
2023-02-20T05:16:59.229Z,17.17
2023-02-20T05:19:25.975Z,16.85
2023-02-20T05:22:11.461Z,15.70
2023-02-20T05:24:38.248Z,17.45
2023-02-20T05:27:04.975Z,16.95
2023-02-20T05:29:31.692Z,16.00
2023-02-20T05:31:58.413Z,16.30
2023-02-20T05:34:25.857Z,16.33
2023-02-20T05:36:53.449Z,17.23
2023-02-20T05:39:20.720Z,14.35
2023-02-20T05:41:49.177Z,13.65
2023-02-20T05:44:16.012Z,15.10
2023-02-20T05:46:43.578Z,14.65
2023-02-20T05:49:11.091Z,15.40
2023-02-20T05:51:37.850Z,15.98
2023-02-20T05:54:05.291Z,14.65
2023-02-20T05:56:33.036Z,14.80
2023-02-20T05:59:00.409Z,12.48
2023-02-20T06:01:29.521Z,15.02
2023-02-20T06:03:56.740Z,14.52
2023-02-20T06:06:24.445Z,15.48
2023-02-20T06:08:51.169Z,13.77
2023-02-20T06:11:17.857Z,13.88
2023-02-20T06:13:45.607Z,14.93
2023-02-20T06:16:13.635Z,13.75
2023-02-20T06:18:42.264Z,15.02
2023-02-20T06:21:10.265Z,12.90
2023-02-20T06:23:40.497Z,12.50
2023-02-20T06:26:07.455Z,13.90
2023-02-20T06:28:34.767Z,14.77
2023-02-20T06:31:02.387Z,13.25
2023-02-20T06:33:30.067Z,13.10
2023-02-20T06:35:56.972Z,13.02
2023-02-20T06:38:24.650Z,12.55
2023-02-20T06:40:51.888Z,12.30
2023-02-20T06:43:18.959Z,11.98
2023-02-20T06:45:45.827Z,12.45
2023-02-20T06:48:14.428Z,9.80
2023-02-20T06:50:41.961Z,11.70
2023-02-20T06:53:09.316Z,12.32
2023-02-20T06:55:36.157Z,11.15
2023-02-20T06:58:02.901Z,11.65
2023-02-20T07:00:29.699Z,11.05
2023-02-20T07:02:56.454Z,10.85
2023-02-20T07:05:23.197Z,11.07
2023-02-20T07:07:49.965Z,11.57
2023-02-20T07:10:16.793Z,11.00
2023-02-20T07:12:43.551Z,10.80
2023-02-20T07:15:12.563Z,10.52
2023-02-20T07:17:39.481Z,9.70
2023-02-20T07:20:06.928Z,11.48
2023-02-20T07:22:33.787Z,10.50
2023-02-20T07:25:00.513Z,11.20
2023-02-20T07:27:27.348Z,11.40
2023-02-20T07:29:54.111Z,10.88
2023-02-20T07:32:23.341Z,10.55
2023-02-20T07:35:02.643Z,11.30
2023-02-20T07:37:31.278Z,10.57
2023-02-20T07:39:58.155Z,11.00
2023-02-20T07:42:24.915Z,12.15
2023-02-20T07:44:51.698Z,11.75
2023-02-20T07:47:18.478Z,13.02
2023-02-20T07:49:45.339Z,12.23
2023-02-20T07:52:12.049Z,11.57
2023-02-20T07:54:38.798Z,10.43
2023-02-20T07:57:05.658Z,12.75
2023-02-20T07:59:32.393Z,13.48
2023-02-20T08:01:59.148Z,12.23
2023-02-20T08:04:25.907Z,12.43
2023-02-20T08:06:52.654Z,13.50
2023-02-20T08:09:19.539Z,11.07
2023-02-20T08:11:46.248Z,12.63
2023-02-20T08:14:13.695Z,11.57
2023-02-20T08:16:40.706Z,12.45
2023-02-20T08:19:07.512Z,11.85
2023-02-20T08:21:34.281Z,12.65
2023-02-20T08:24:01.172Z,13.50
2023-02-20T08:26:28.890Z,12.75
2023-02-20T08:28:55.702Z,13.75
2023-02-20T08:31:31.615Z,12.27
2023-02-20T08:33:59.081Z,11.23
2023-02-20T08:36:25.973Z,11.95
2023-02-20T08:38:52.896Z,12.10
2023-02-20T08:41:19.796Z,10.98
2023-02-20T08:43:46.905Z,12.48
2023-02-20T08:46:14.210Z,11.90
2023-02-20T08:48:41.736Z,10.52
2023-02-20T08:51:09.063Z,10.43
2023-02-20T08:53:37.775Z,10.15
2023-02-20T08:56:08.009Z,8.65
2023-02-20T08:58:34.702Z,9.40
2023-02-20T09:01:01.412Z,8.77
2023-02-20T09:03:29.370Z,9.32
2023-02-20T09:05:56.108Z,9.50
2023-02-20T09:08:22.889Z,8.82
2023-02-20T09:10:49.733Z,8.88
2023-02-20T09:13:16.696Z,9.65
2023-02-20T09:15:43.590Z,9.27
2023-02-20T09:18:14.538Z,9.70
2023-02-20T09:20:41.510Z,9.93
2023-02-20T09:23:08.697Z,8.85
2023-02-20T09:25:36.046Z,8.95
2023-02-20T09:28:03.450Z,7.30
2023-02-20T09:30:30.240Z,9.52
2023-02-20T09:32:56.987Z,8.05
2023-02-20T09:35:27.344Z,7.32
2023-02-20T09:37:54.400Z,8.90
2023-02-20T09:40:25.960Z,8.07
2023-02-20T09:43:17.122Z,8.00
2023-02-20T09:45:51.609Z,8.27
2023-02-20T09:48:38.816Z,9.25
2023-02-20T09:51:13.799Z,9.93
2023-02-20T09:54:19.465Z,10.50
2023-02-20T09:56:52.421Z,10.77
2023-02-20T09:59:22.188Z,11.27
2023-02-20T10:02:16.537Z,9.85
2023-02-20T10:04:58.896Z,9.70
2023-02-20T10:07:41.246Z,9.32
2023-02-20T10:10:24.561Z,9.80
2023-02-20T10:13:10.877Z,9.73
2023-02-20T10:15:45.947Z,9.55
2023-02-20T10:18:39.870Z,9.95
2023-02-20T10:21:39.902Z,9.95
2023-02-20T10:24:26.842Z,8.02
2023-02-20T10:27:03.821Z,8.90
2023-02-20T10:29:35.388Z,7.47
2023-02-20T10:32:12.954Z,7.20
2023-02-20T10:34:56.947Z,8.27
2023-02-20T10:37:33.472Z,6.45
2023-02-20T10:40:18.274Z,6.03
2023-02-20T10:43:09.636Z,6.45
2023-02-20T10:45:51.273Z,6.45
2023-02-20T10:48:18.147Z,7.05
2023-02-20T10:50:54.081Z,7.25
2023-02-20T10:53:27.686Z,6.50
2023-02-20T10:56:13.283Z,6.10
2023-02-20T10:58:58.205Z,5.82
2023-02-20T11:01:26.480Z,6.28
2023-02-20T11:04:15.862Z,6.10
2023-02-20T11:06:54.043Z,5.38
2023-02-20T11:09:23.187Z,5.55
2023-02-20T11:11:50.139Z,5.43
2023-02-20T11:14:42.709Z,5.35
2023-02-20T11:17:15.989Z,4.72
2023-02-20T11:19:45.540Z,4.75
2023-02-20T11:22:13.789Z,5.10
2023-02-20T11:24:42.675Z,5.18
2023-02-20T11:27:19.109Z,5.28
2023-02-20T11:29:49.259Z,5.15
2023-02-20T11:32:30.689Z,5.07
2023-02-20T11:35:19.573Z,5.40
2023-02-20T11:37:54.780Z,4.90
2023-02-20T11:40:29.157Z,5.35
2023-02-20T11:42:56.528Z,4.90
2023-02-20T11:45:24.935Z,3.97
2023-02-20T11:48:10.397Z,4.68
2023-02-20T11:50:39.756Z,4.95
2023-02-20T11:53:08.116Z,4.70
2023-02-20T11:55:35.441Z,5.13
2023-02-20T11:58:03.354Z,4.68
2023-02-20T12:00:48.170Z,4.57
2023-02-20T12:03:28.233Z,4.68
2023-02-20T12:05:56.441Z,5.00
2023-02-20T12:08:38.481Z,5.07
2023-02-20T12:11:10.194Z,4.93
2023-02-20T12:16:18.065Z,3.63
2023-02-20T12:18:48.878Z,4.22
2023-02-20T12:21:46.513Z,4.72
2023-02-20T12:24:36.985Z,4.43
2023-02-20T12:27:17.734Z,4.45
2023-02-20T12:30:07.037Z,4.68
2023-02-20T12:33:11.506Z,4.78
2023-02-20T12:35:50.631Z,4.28
2023-02-20T12:38:39.151Z,4.28
2023-02-20T12:41:32.317Z,4.57
2023-02-20T12:44:17.673Z,4.18
2023-02-20T12:46:51.831Z,4.93
2023-02-20T12:50:12.209Z,4.03
2023-02-20T12:53:07.641Z,5.10
2023-02-20T12:55:52.319Z,4.70
2023-02-20T12:58:25.668Z,4.38
2023-02-20T13:01:00.399Z,4.25
2023-02-20T13:04:13.027Z,4.00
2023-02-20T13:06:56.529Z,4.57
2023-02-20T13:09:32.175Z,4.60
2023-02-20T13:12:13.682Z,5.85
2023-02-20T13:14:49.413Z,4.32
2023-02-20T13:17:29.320Z,4.88
2023-02-20T13:20:35.336Z,5.65
2023-02-20T13:23:05.776Z,4.80
2023-02-20T13:25:41.884Z,5.00
2023-02-20T13:28:20.533Z,4.90
2023-02-20T13:31:07.237Z,4.97
2023-02-20T13:33:36.347Z,4.43
2023-02-20T13:36:05.028Z,4.95
2023-02-20T13:38:32.364Z,4.47
2023-02-20T13:41:09.725Z,4.60
2023-02-20T13:43:37.973Z,4.65
2023-02-20T13:46:07.790Z,4.68
2023-02-20T13:48:34.463Z,4.40
2023-02-20T13:51:16.478Z,4.72
2023-02-20T13:53:51.507Z,4.57
2023-02-20T13:56:19.190Z,4.53
2023-02-20T13:58:46.367Z,5.60
2023-02-20T14:01:13.351Z,5.13
2023-02-20T14:03:40.094Z,5.65
2023-02-20T14:06:14.863Z,5.28
2023-02-20T14:08:43.478Z,4.88
2023-02-20T14:11:33.245Z,5.43
2023-02-20T14:14:22.286Z,5.13
2023-02-20T14:16:49.052Z,4.78
2023-02-20T14:19:26.923Z,4.80
2023-02-20T14:21:53.956Z,4.82
2023-02-20T14:24:24.085Z,5.28
2023-02-20T14:26:55.866Z,5.22
2023-02-20T14:29:35.030Z,4.53
2023-02-20T14:32:03.871Z,5.47
2023-02-20T14:35:05.538Z,5.50
2023-02-20T14:37:56.959Z,4.53
2023-02-20T14:40:41.725Z,5.20
2023-02-20T14:43:28.343Z,5.25
2023-02-20T14:46:01.990Z,5.55
2023-02-20T14:48:31.338Z,5.80
2023-02-20T14:51:24.953Z,4.53
2023-02-20T14:54:10.735Z,4.63
2023-02-20T14:56:37.534Z,5.22
2023-02-20T14:59:38.726Z,5.70
2023-02-20T15:02:32.445Z,5.00
2023-02-20T15:05:19.035Z,4.85
2023-02-20T15:07:46.115Z,5.68
2023-02-20T15:10:33.252Z,5.43
2023-02-20T15:13:10.273Z,6.10
2023-02-20T15:15:40.452Z,5.43
2023-02-20T15:18:14.095Z,5.43
2023-02-20T15:20:43.699Z,5.43
2023-02-20T15:23:18.011Z,5.63
2023-02-20T15:25:45.237Z,5.40
2023-02-20T15:28:17.942Z,5.00
2023-02-20T15:31:07.019Z,5.43
2023-02-20T15:33:36.725Z,5.68
2023-02-20T15:36:05.024Z,4.78
2023-02-20T15:38:34.405Z,6.05
2023-02-20T15:41:03.569Z,5.35
2023-02-20T15:43:45.136Z,5.78
2023-02-20T15:46:14.538Z,6.10
2023-02-20T15:48:41.585Z,6.18
2023-02-20T15:51:09.576Z,6.18
2023-02-20T15:53:37.048Z,5.53
2023-02-20T15:56:04.329Z,6.60
2023-02-20T15:58:35.569Z,6.30
2023-02-20T16:01:02.609Z,6.20
2023-02-20T16:03:33.847Z,5.70
2023-02-20T16:06:06.349Z,5.57
2023-02-20T16:08:33.143Z,5.35
2023-02-20T16:10:59.854Z,6.10
2023-02-20T16:13:30.844Z,5.50
2023-02-20T16:15:58.256Z,6.15
2023-02-20T16:18:25.086Z,5.85
2023-02-20T16:20:52.644Z,5.57
2023-02-20T16:23:19.585Z,5.70
2023-02-20T16:25:46.693Z,5.07
2023-02-20T16:28:13.946Z,5.88
2023-02-20T16:30:43.864Z,5.68
2023-02-20T16:33:19.840Z,6.85
2023-02-20T16:35:47.988Z,6.32
2023-02-20T16:38:15.089Z,6.40
2023-02-20T16:40:42.179Z,7.18
2023-02-20T16:43:12.667Z,6.35
2023-02-20T16:45:43.256Z,6.88
2023-02-20T16:48:16.186Z,6.03
2023-02-20T16:50:43.056Z,7.00
2023-02-20T16:53:12.445Z,7.10
2023-02-20T16:55:41.964Z,7.10
2023-02-20T16:58:08.775Z,7.03
2023-02-20T17:00:50.914Z,7.18
2023-02-20T17:03:23.848Z,7.18
2023-02-20T17:05:58.087Z,7.10
2023-02-20T17:08:25.119Z,6.10
2023-02-20T17:10:52.082Z,7.75
2023-02-20T17:13:18.870Z,6.75
2023-02-20T17:15:47.724Z,7.07
2023-02-20T17:18:14.983Z,7.75
2023-02-20T17:20:41.830Z,7.13
2023-02-20T17:23:08.728Z,7.82
2023-02-20T17:25:35.527Z,7.32
2023-02-20T17:28:03.057Z,7.10
2023-02-20T17:30:29.927Z,7.10
2023-02-20T17:32:56.739Z,7.30
2023-02-20T17:35:23.488Z,7.50
2023-02-20T17:37:50.441Z,6.70
2023-02-20T17:40:17.441Z,7.72
2023-02-20T17:42:44.408Z,7.55
2023-02-20T17:45:11.354Z,7.95
2023-02-20T17:47:39.414Z,8.23
2023-02-20T17:50:07.071Z,8.32
2023-02-20T17:52:33.807Z,8.98
2023-02-20T17:55:00.532Z,8.90
2023-02-20T17:57:28.316Z,9.38
2023-02-20T17:59:55.114Z,8.38
2023-02-20T18:02:21.860Z,8.93
2023-02-20T18:04:48.638Z,9.63
2023-02-20T18:07:17.319Z,8.98
2023-02-20T18:09:44.559Z,9.55
2023-02-20T18:12:11.418Z,9.85
2023-02-20T18:14:38.165Z,10.20
2023-02-20T18:17:05.047Z,10.38
2023-02-20T18:19:32.354Z,10.90
2023-02-20T18:21:59.466Z,11.15
2023-02-20T18:24:26.829Z,11.10
2023-02-20T18:26:54.649Z,11.77
2023-02-20T18:29:22.220Z,11.80
2023-02-20T18:31:50.131Z,11.07
2023-02-20T18:34:17.784Z,13.02
2023-02-20T18:36:44.571Z,13.30
2023-02-20T18:39:13.683Z,12.38
2023-02-20T18:41:40.681Z,12.30
2023-02-20T18:44:09.897Z,11.32
2023-02-20T18:46:39.782Z,8.50
2023-02-20T18:49:07.033Z,10.95
2023-02-20T18:51:39.036Z,11.98
2023-02-20T18:54:08.199Z,11.10
2023-02-20T18:56:39.011Z,11.30
2023-02-20T18:59:05.870Z,10.23
2023-02-20T19:01:34.068Z,10.93
2023-02-20T19:04:04.071Z,10.10
2023-02-20T19:06:34.196Z,11.10
2023-02-20T19:09:01.680Z,10.23
2023-02-20T19:11:29.729Z,11.25
2023-02-20T19:13:56.634Z,11.85
2023-02-20T19:16:24.042Z,10.52
2023-02-20T19:18:51.346Z,12.65
2023-02-20T19:21:19.602Z,11.95
2023-02-20T19:23:47.369Z,11.98
2023-02-20T19:26:14.817Z,13.30
2023-02-20T19:28:42.328Z,13.10
2023-02-20T19:31:11.080Z,13.15
2023-02-20T19:33:38.800Z,13.10
2023-02-20T19:36:07.642Z,14.00
2023-02-20T19:38:37.326Z,14.52
2023-02-20T19:41:04.207Z,13.98
2023-02-20T19:43:30.980Z,13.60
2023-02-20T19:45:57.798Z,12.85
2023-02-20T19:48:26.984Z,11.80
2023-02-20T19:50:56.107Z,11.30
2023-02-20T19:53:23.746Z,11.80
2023-02-20T19:55:54.351Z,11.88
2023-02-20T19:58:21.499Z,10.35
2023-02-20T20:00:48.403Z,11.88
2023-02-20T20:03:15.218Z,12.68
2023-02-20T20:05:41.937Z,11.40
2023-02-20T20:08:08.770Z,12.45
2023-02-20T20:10:35.548Z,12.60
2023-02-20T20:13:02.655Z,11.65
2023-02-20T20:15:29.578Z,12.60
2023-02-20T20:17:59.574Z,12.73
2023-02-20T20:20:28.162Z,13.10
2023-02-20T20:22:57.799Z,13.07
2023-02-20T20:25:24.896Z,12.68
2023-02-20T20:27:52.744Z,12.73
2023-02-20T20:30:25.770Z,12.43
2023-02-20T20:32:53.078Z,13.50
2023-02-20T20:35:22.380Z,13.40
2023-02-20T20:37:49.325Z,14.32
2023-02-20T20:40:16.890Z,13.82
2023-02-20T20:42:44.182Z,13.80
2023-02-20T20:45:13.914Z,12.98
2023-02-20T20:47:42.746Z,14.13
2023-02-20T20:50:10.569Z,13.68
2023-02-20T20:52:37.371Z,12.50
2023-02-20T20:55:04.775Z,13.23
2023-02-20T20:57:38.048Z,13.40
2023-02-20T21:00:07.490Z,13.02
2023-02-20T21:02:34.324Z,13.15
2023-02-20T21:05:10.278Z,12.73
2023-02-20T21:07:39.496Z,12.25
2023-02-20T21:10:08.105Z,13.45
2023-02-20T21:12:35.038Z,13.40
2023-02-20T21:15:02.939Z,14.07
2023-02-20T21:17:29.757Z,12.85
2023-02-20T21:19:56.483Z,12.95
2023-02-20T21:22:24.329Z,12.40
2023-02-20T21:24:51.129Z,12.60
2023-02-20T21:27:17.921Z,13.20
2023-02-20T21:29:44.654Z,13.95
2023-02-20T21:32:11.554Z,14.57
2023-02-20T21:34:38.429Z,13.25
2023-02-20T21:37:05.590Z,14.43
2023-02-20T21:39:32.458Z,14.75
2023-02-20T21:42:17.669Z,15.25
2023-02-20T21:44:47.720Z,14.20
2023-02-20T21:47:15.995Z,14.85
2023-02-20T21:49:45.661Z,16.85
2023-02-20T21:52:13.274Z,16.17
2023-02-20T21:54:41.861Z,17.85
2023-02-20T21:57:08.623Z,15.77
2023-02-20T21:59:35.268Z,15.25
2023-02-20T22:02:02.005Z,16.55
2023-02-20T22:04:28.761Z,17.00
2023-02-20T22:07:14.082Z,16.30
2023-02-20T22:09:59.774Z,16.35
2023-02-20T22:12:45.231Z,15.63
2023-02-20T22:15:33.568Z,16.27
2023-02-20T22:18:19.014Z,16.60
2023-02-20T22:21:04.475Z,15.60
2023-02-20T22:23:49.960Z,16.23
2023-02-20T22:26:36.422Z,15.93
2023-02-20T22:29:22.086Z,15.90
2023-02-20T22:32:07.666Z,17.55
2023-02-20T22:35:09.372Z,17.45
2023-02-20T22:37:56.403Z,16.25
2023-02-20T22:40:41.846Z,17.30
2023-02-20T22:43:27.324Z,18.25
2023-02-20T22:46:12.807Z,18.60
2023-02-20T22:48:58.352Z,18.40
2023-02-20T22:51:43.767Z,18.58
2023-02-20T22:54:29.342Z,18.10
2023-02-20T22:57:16.003Z,19.10
2023-02-20T23:00:01.683Z,19.15
2023-02-20T23:02:47.736Z,19.98
2023-02-20T23:05:33.163Z,17.75
2023-02-20T23:08:18.611Z,18.90
2023-02-20T23:11:04.322Z,18.52
2023-02-20T23:13:49.683Z,20.25
2023-02-20T23:16:39.873Z,19.90
2023-02-20T23:19:27.462Z,20.17
2023-02-20T23:22:13.856Z,21.00
2023-02-20T23:24:59.345Z,20.05
2023-02-20T23:27:44.860Z,20.77
2023-02-20T23:30:30.915Z,21.90
2023-02-20T23:33:16.233Z,20.33
2023-02-20T23:36:01.500Z,21.27
2023-02-20T23:38:47.043Z,21.52
2023-02-20T23:41:32.485Z,21.88
2023-02-20T23:44:17.754Z,21.27
2023-02-20T23:47:04.280Z,21.27
2023-02-20T23:49:49.698Z,24.08
2023-02-20T23:52:35.151Z,24.52
2023-02-20T23:55:20.698Z,25.10
2023-02-20T23:58:06.073Z,26.15
